Mount Berry, GA (30149)

7:26 PM EDT on August 03, 2015 (GMT -0400)
Oak Hill & The Martha Berry Museum | | Change Station
CLOSE
Current Station
Personal Weather Station
Location: Rome, GA
Elevation: 643 ft
Nearby Weather Stations

Elev 643 ft 34.28 °N, 85.18 °W | Updated 15 minutes ago

Clear
Clear
88.5 °F
Feels Like 89 °F
N
0.0
Wind Variable Wind from SE

Today
High -- | Low -- °F
--% Chance of Precip.
Yesterday
High -- | Low -- °F
Precip. -- in
6:52 AM 8:40 PM
Waning Gibbous, 83% visible
Pressure 29.86 in
Visibility 10.0 miles
Clouds Clear
Heat Index 89 °F
Dew Point 62 °F
Humidity 41%
Rainfall 0.00 in
Snow Depth Not available.
UV 2 out of 12
Pollen 4.90 out of 12
Air Quality Not available.
Flu Activity Not available.
METAR KRMG 032253Z AUTO 35008KT 10SM CLR 35/09 A2989 RMK AO2 SLP111 T03500094

More Conditions Fewer Conditions

Pressure 29.86 in
Visibility 10.0 miles
Clouds Clear
Heat Index 89 °F
Dew Point 62 °F
Humidity 41%
Rainfall 0.00 in
Snow Depth Not available.
UV 2 out of 12
Pollen 4.90 out of 12
Air Quality Not available.
Flu Activity Not available.
METAR KRMG 032253Z AUTO 35008KT 10SM CLR 35/09 A2989 RMK AO2 SLP111 T03500094

More Conditions Fewer Conditions

10-Day Weather Forecast

×

Almanac

Astronomy

Aug. 03, 2015 Rise Set
Actual Time
Civil Twilight
Nautical Twilight
Astronomical Twilight
Moon
Length of Visible Light
Length of Day
Tomorrow will be .
, % of the Moon is Illuminated

Today's Extremes

State Highs State Lows

Community

WunderPhotos

Upload Photos

1,843,786 photos uploaded!

WunderBlogs® & News

Nearby

Air Quality

  Air Quality AQ Index Pollutant
Not available.

Snow Depth

Station Depth Elevation

Earthquake Activity

City Distance Mag. Time & Date
Minimum magnitude displayed is 2.5.

Coastal Water Temperatures

Place Temperature

Stations

Nearby Weather Stations

Station Location Temp. Windchill Dew Point Humidity Wind Precip. Elev Updated Type